sensor_id;sensor_type;location;lat;lon;timestamp;temperature;humidity
62583;DHT22;48641;51.676;5.808;2023-04-15T00:01:09;15.40;62.90
62583;DHT22;48641;51.676;5.808;2023-04-15T00:03:34;15.40;62.80
62583;DHT22;48641;51.676;5.808;2023-04-15T00:06:01;15.40;62.80
62583;DHT22;48641;51.676;5.808;2023-04-15T00:08:26;15.40;62.70
62583;DHT22;48641;51.676;5.808;2023-04-15T00:10:52;15.40;62.80
62583;DHT22;48641;51.676;5.808;2023-04-15T00:13:18;15.40;62.70
62583;DHT22;48641;51.676;5.808;2023-04-15T00:15:43;15.40;62.70
62583;DHT22;48641;51.676;5.808;2023-04-15T00:18:09;15.40;62.70
62583;DHT22;48641;51.676;5.808;2023-04-15T00:20:34;15.40;62.60
62583;DHT22;48641;51.676;5.808;2023-04-15T00:23:01;15.40;62.60
62583;DHT22;48641;51.676;5.808;2023-04-15T00:25:28;15.40;62.60
62583;DHT22;48641;51.676;5.808;2023-04-15T00:27:53;15.40;62.50
62583;DHT22;48641;51.676;5.808;2023-04-15T00:30:19;15.40;62.60
62583;DHT22;48641;51.676;5.808;2023-04-15T00:32:45;15.30;62.40
62583;DHT22;48641;51.676;5.808;2023-04-15T00:35:11;15.40;62.50
62583;DHT22;48641;51.676;5.808;2023-04-15T00:37:36;15.40;62.50
62583;DHT22;48641;51.676;5.808;2023-04-15T00:40:02;15.40;62.50
62583;DHT22;48641;51.676;5.808;2023-04-15T00:42:30;15.30;62.40
62583;DHT22;48641;51.676;5.808;2023-04-15T00:44:56;15.40;62.50
62583;DHT22;48641;51.676;5.808;2023-04-15T00:47:22;15.30;62.40
62583;DHT22;48641;51.676;5.808;2023-04-15T00:49:47;15.40;62.50
62583;DHT22;48641;51.676;5.808;2023-04-15T00:52:13;15.40;62.50
62583;DHT22;48641;51.676;5.808;2023-04-15T00:54:39;15.40;62.60
62583;DHT22;48641;51.676;5.808;2023-04-15T00:57:05;15.30;62.60
62583;DHT22;48641;51.676;5.808;2023-04-15T00:59:33;15.30;62.60
62583;DHT22;48641;51.676;5.808;2023-04-15T01:01:59;15.40;62.70
62583;DHT22;48641;51.676;5.808;2023-04-15T01:04:25;15.40;62.60
62583;DHT22;48641;51.676;5.808;2023-04-15T01:06:51;15.40;62.50
62583;DHT22;48641;51.676;5.808;2023-04-15T01:09:17;15.40;62.60
62583;DHT22;48641;51.676;5.808;2023-04-15T01:11:43;15.30;62.50
62583;DHT22;48641;51.676;5.808;2023-04-15T01:14:09;15.30;62.40
62583;DHT22;48641;51.676;5.808;2023-04-15T01:16:36;15.40;62.50
62583;DHT22;48641;51.676;5.808;2023-04-15T01:19:07;15.40;62.50
62583;DHT22;48641;51.676;5.808;2023-04-15T01:21:38;15.30;62.30
62583;DHT22;48641;51.676;5.808;2023-04-15T01:24:07;15.30;62.40
62583;DHT22;48641;51.676;5.808;2023-04-15T01:26:34;15.30;62.30
62583;DHT22;48641;51.676;5.808;2023-04-15T01:29:00;15.20;62.50
62583;DHT22;48641;51.676;5.808;2023-04-15T01:31:25;15.20;62.50
62583;DHT22;48641;51.676;5.808;2023-04-15T01:33:51;15.20;62.40
62583;DHT22;48641;51.676;5.808;2023-04-15T01:36:17;15.30;62.40
62583;DHT22;48641;51.676;5.808;2023-04-15T01:38:42;15.20;62.40
62583;DHT22;48641;51.676;5.808;2023-04-15T01:41:08;15.20;62.40
62583;DHT22;48641;51.676;5.808;2023-04-15T01:43:34;15.20;62.40
62583;DHT22;48641;51.676;5.808;2023-04-15T01:46:01;15.20;62.40
62583;DHT22;48641;51.676;5.808;2023-04-15T01:48:27;15.20;62.40
62583;DHT22;48641;51.676;5.808;2023-04-15T01:50:56;15.30;62.40
62583;DHT22;48641;51.676;5.808;2023-04-15T01:53:25;15.20;62.30
62583;DHT22;48641;51.676;5.808;2023-04-15T01:55:51;15.20;62.50
62583;DHT22;48641;51.676;5.808;2023-04-15T01:58:17;15.20;62.40
62583;DHT22;48641;51.676;5.808;2023-04-15T02:00:43;15.20;62.40
62583;DHT22;48641;51.676;5.808;2023-04-15T02:03:09;15.20;62.40
62583;DHT22;48641;51.676;5.808;2023-04-15T02:05:35;15.20;62.40
62583;DHT22;48641;51.676;5.808;2023-04-15T02:08:01;15.20;62.40
62583;DHT22;48641;51.676;5.808;2023-04-15T02:10:29;15.20;62.40
62583;DHT22;48641;51.676;5.808;2023-04-15T02:12:55;15.20;62.40
62583;DHT22;48641;51.676;5.808;2023-04-15T02:15:20;15.20;62.40
62583;DHT22;48641;51.676;5.808;2023-04-15T02:17:46;15.20;62.40
62583;DHT22;48641;51.676;5.808;2023-04-15T02:20:16;15.20;62.40
62583;DHT22;48641;51.676;5.808;2023-04-15T02:22:42;15.20;62.30
62583;DHT22;48641;51.676;5.808;2023-04-15T02:25:08;15.20;62.40
62583;DHT22;48641;51.676;5.808;2023-04-15T02:27:35;15.20;62.40
62583;DHT22;48641;51.676;5.808;2023-04-15T02:30:00;15.20;62.30
62583;DHT22;48641;51.676;5.808;2023-04-15T02:32:26;15.20;62.40
62583;DHT22;48641;51.676;5.808;2023-04-15T02:34:51;15.20;62.40
62583;DHT22;48641;51.676;5.808;2023-04-15T02:37:17;15.20;62.40
62583;DHT22;48641;51.676;5.808;2023-04-15T02:39:44;15.20;62.20
62583;DHT22;48641;51.676;5.808;2023-04-15T02:42:10;15.20;62.20
62583;DHT22;48641;51.676;5.808;2023-04-15T02:44:36;15.20;62.20
62583;DHT22;48641;51.676;5.808;2023-04-15T02:47:01;15.20;62.20
62583;DHT22;48641;51.676;5.808;2023-04-15T02:49:29;15.20;62.20
62583;DHT22;48641;51.676;5.808;2023-04-15T02:51:55;15.20;62.20
62583;DHT22;48641;51.676;5.808;2023-04-15T02:54:23;15.20;62.20
62583;DHT22;48641;51.676;5.808;2023-04-15T02:56:48;15.20;62.20
62583;DHT22;48641;51.676;5.808;2023-04-15T02:59:14;15.20;62.10
62583;DHT22;48641;51.676;5.808;2023-04-15T03:01:40;15.20;62.10
62583;DHT22;48641;51.676;5.808;2023-04-15T03:04:06;15.20;62.20
62583;DHT22;48641;51.676;5.808;2023-04-15T03:06:33;15.20;62.10
62583;DHT22;48641;51.676;5.808;2023-04-15T03:08:59;15.20;62.10
62583;DHT22;48641;51.676;5.808;2023-04-15T03:11:25;15.20;62.10
62583;DHT22;48641;51.676;5.808;2023-04-15T03:13:51;15.20;62.20
62583;DHT22;48641;51.676;5.808;2023-04-15T03:16:17;15.20;62.10
62583;DHT22;48641;51.676;5.808;2023-04-15T03:18:42;15.20;62.10
62583;DHT22;48641;51.676;5.808;2023-04-15T03:21:08;15.20;62.20
62583;DHT22;48641;51.676;5.808;2023-04-15T03:23:34;15.20;62.10
62583;DHT22;48641;51.676;5.808;2023-04-15T03:26:03;15.20;62.10
62583;DHT22;48641;51.676;5.808;2023-04-15T03:28:29;15.20;62.20
62583;DHT22;48641;51.676;5.808;2023-04-15T03:30:55;15.20;62.20
62583;DHT22;48641;51.676;5.808;2023-04-15T03:33:20;15.10;62.10
62583;DHT22;48641;51.676;5.808;2023-04-15T03:35:46;15.10;62.10
62583;DHT22;48641;51.676;5.808;2023-04-15T03:38:12;15.10;62.10
62583;DHT22;48641;51.676;5.808;2023-04-15T03:40:39;15.10;63.00
62583;DHT22;48641;51.676;5.808;2023-04-15T03:43:05;15.10;62.10
62583;DHT22;48641;51.676;5.808;2023-04-15T03:45:31;15.10;62.10
62583;DHT22;48641;51.676;5.808;2023-04-15T03:47:57;15.10;62.10
62583;DHT22;48641;51.676;5.808;2023-04-15T03:50:22;15.10;62.10
62583;DHT22;48641;51.676;5.808;2023-04-15T03:52:48;15.10;62.10
62583;DHT22;48641;51.676;5.808;2023-04-15T03:55:13;15.10;62.10
62583;DHT22;48641;51.676;5.808;2023-04-15T03:57:39;15.10;62.10
62583;DHT22;48641;51.676;5.808;2023-04-15T04:00:06;15.10;62.10
62583;DHT22;48641;51.676;5.808;2023-04-15T04:02:33;15.10;62.10
62583;DHT22;48641;51.676;5.808;2023-04-15T04:04:59;15.10;62.10
62583;DHT22;48641;51.676;5.808;2023-04-15T04:07:25;15.10;62.10
62583;DHT22;48641;51.676;5.808;2023-04-15T04:09:50;15.10;62.10
62583;DHT22;48641;51.676;5.808;2023-04-15T04:12:16;15.10;62.10
62583;DHT22;48641;51.676;5.808;2023-04-15T04:14:41;15.10;62.10
62583;DHT22;48641;51.676;5.808;2023-04-15T04:17:07;15.10;62.10
62583;DHT22;48641;51.676;5.808;2023-04-15T04:19:33;15.10;62.10
62583;DHT22;48641;51.676;5.808;2023-04-15T04:21:58;15.10;62.10
62583;DHT22;48641;51.676;5.808;2023-04-15T04:24:24;15.10;62.10
62583;DHT22;48641;51.676;5.808;2023-04-15T04:26:50;15.10;62.10
62583;DHT22;48641;51.676;5.808;2023-04-15T04:29:16;15.10;62.10
62583;DHT22;48641;51.676;5.808;2023-04-15T04:31:42;15.10;62.10
62583;DHT22;48641;51.676;5.808;2023-04-15T04:34:07;15.10;62.10
62583;DHT22;48641;51.676;5.808;2023-04-15T04:36:34;15.10;62.10
62583;DHT22;48641;51.676;5.808;2023-04-15T04:39:00;15.10;62.10
62583;DHT22;48641;51.676;5.808;2023-04-15T04:41:26;15.10;62.10
62583;DHT22;48641;51.676;5.808;2023-04-15T04:43:51;15.10;62.10
62583;DHT22;48641;51.676;5.808;2023-04-15T04:46:20;15.10;62.10
62583;DHT22;48641;51.676;5.808;2023-04-15T04:48:45;15.10;62.10
62583;DHT22;48641;51.676;5.808;2023-04-15T04:51:11;15.00;62.10
62583;DHT22;48641;51.676;5.808;2023-04-15T04:53:37;15.00;62.00
62583;DHT22;48641;51.676;5.808;2023-04-15T04:56:03;15.00;62.00
62583;DHT22;48641;51.676;5.808;2023-04-15T04:58:28;15.00;62.00
62583;DHT22;48641;51.676;5.808;2023-04-15T05:00:54;15.00;62.00
62583;DHT22;48641;51.676;5.808;2023-04-15T05:03:21;15.00;62.00
62583;DHT22;48641;51.676;5.808;2023-04-15T05:05:47;15.00;62.00
62583;DHT22;48641;51.676;5.808;2023-04-15T05:08:14;15.00;62.10
62583;DHT22;48641;51.676;5.808;2023-04-15T05:10:39;15.00;62.10
62583;DHT22;48641;51.676;5.808;2023-04-15T05:13:05;15.00;62.10
62583;DHT22;48641;51.676;5.808;2023-04-15T05:15:31;15.00;62.10
62583;DHT22;48641;51.676;5.808;2023-04-15T05:17:57;15.00;62.10
62583;DHT22;48641;51.676;5.808;2023-04-15T05:20:23;15.00;62.10
62583;DHT22;48641;51.676;5.808;2023-04-15T05:22:48;15.00;62.10
62583;DHT22;48641;51.676;5.808;2023-04-15T05:25:14;15.00;62.10
62583;DHT22;48641;51.676;5.808;2023-04-15T05:27:39;15.00;62.10
62583;DHT22;48641;51.676;5.808;2023-04-15T05:30:05;15.00;62.20
62583;DHT22;48641;51.676;5.808;2023-04-15T05:32:31;15.00;62.10
62583;DHT22;48641;51.676;5.808;2023-04-15T05:34:57;15.00;62.10
62583;DHT22;48641;51.676;5.808;2023-04-15T05:37:22;15.00;62.20
62583;DHT22;48641;51.676;5.808;2023-04-15T05:39:48;15.00;62.10
62583;DHT22;48641;51.676;5.808;2023-04-15T05:42:14;15.00;62.10
62583;DHT22;48641;51.676;5.808;2023-04-15T05:44:39;15.00;62.10
62583;DHT22;48641;51.676;5.808;2023-04-15T05:47:05;15.00;62.10
62583;DHT22;48641;51.676;5.808;2023-04-15T05:49:32;15.00;63.00
62583;DHT22;48641;51.676;5.808;2023-04-15T05:51:57;15.00;62.10
62583;DHT22;48641;51.676;5.808;2023-04-15T05:54:23;15.00;62.10
62583;DHT22;48641;51.676;5.808;2023-04-15T05:56:49;15.00;62.10
62583;DHT22;48641;51.676;5.808;2023-04-15T05:59:14;15.00;62.10
62583;DHT22;48641;51.676;5.808;2023-04-15T06:01:40;15.00;62.10
62583;DHT22;48641;51.676;5.808;2023-04-15T06:04:05;15.00;62.20
62583;DHT22;48641;51.676;5.808;2023-04-15T06:06:31;15.00;62.20
62583;DHT22;48641;51.676;5.808;2023-04-15T06:08:57;15.00;62.30
62583;DHT22;48641;51.676;5.808;2023-04-15T06:11:23;15.00;62.20
62583;DHT22;48641;51.676;5.808;2023-04-15T06:13:49;14.90;62.20
62583;DHT22;48641;51.676;5.808;2023-04-15T06:16:14;15.00;62.20
62583;DHT22;48641;51.676;5.808;2023-04-15T06:18:40;14.90;62.20
62583;DHT22;48641;51.676;5.808;2023-04-15T06:21:06;15.00;62.20
62583;DHT22;48641;51.676;5.808;2023-04-15T06:23:35;14.90;62.20
62583;DHT22;48641;51.676;5.808;2023-04-15T06:26:01;14.90;62.20
62583;DHT22;48641;51.676;5.808;2023-04-15T06:28:27;14.90;62.20
62583;DHT22;48641;51.676;5.808;2023-04-15T06:30:53;14.90;62.20
62583;DHT22;48641;51.676;5.808;2023-04-15T06:33:19;14.90;62.20
62583;DHT22;48641;51.676;5.808;2023-04-15T06:35:45;14.90;62.20
62583;DHT22;48641;51.676;5.808;2023-04-15T06:38:11;14.90;62.30
62583;DHT22;48641;51.676;5.808;2023-04-15T06:40:37;14.90;62.20
62583;DHT22;48641;51.676;5.808;2023-04-15T06:43:03;14.90;62.20
62583;DHT22;48641;51.676;5.808;2023-04-15T06:45:29;14.90;62.30
62583;DHT22;48641;51.676;5.808;2023-04-15T06:47:55;14.90;62.20
62583;DHT22;48641;51.676;5.808;2023-04-15T06:50:21;14.90;62.20
62583;DHT22;48641;51.676;5.808;2023-04-15T06:52:47;14.90;62.20
62583;DHT22;48641;51.676;5.808;2023-04-15T06:55:12;14.90;62.20
62583;DHT22;48641;51.676;5.808;2023-04-15T06:57:39;14.90;62.20
62583;DHT22;48641;51.676;5.808;2023-04-15T07:00:05;14.90;62.20
62583;DHT22;48641;51.676;5.808;2023-04-15T07:02:32;14.90;62.20
62583;DHT22;48641;51.676;5.808;2023-04-15T07:04:57;14.90;62.20
62583;DHT22;48641;51.676;5.808;2023-04-15T07:07:23;14.90;62.20
62583;DHT22;48641;51.676;5.808;2023-04-15T07:09:50;14.90;62.20
62583;DHT22;48641;51.676;5.808;2023-04-15T07:12:19;14.90;62.20
62583;DHT22;48641;51.676;5.808;2023-04-15T07:14:45;14.90;62.20
62583;DHT22;48641;51.676;5.808;2023-04-15T07:17:11;14.90;62.30
62583;DHT22;48641;51.676;5.808;2023-04-15T07:19:37;14.90;62.20
62583;DHT22;48641;51.676;5.808;2023-04-15T07:22:03;14.80;62.20
62583;DHT22;48641;51.676;5.808;2023-04-15T07:24:28;14.90;62.30
62583;DHT22;48641;51.676;5.808;2023-04-15T07:26:54;14.90;62.40
62583;DHT22;48641;51.676;5.808;2023-04-15T07:29:23;14.90;63.00
62583;DHT22;48641;51.676;5.808;2023-04-15T07:31:49;14.90;62.90
62583;DHT22;48641;51.676;5.808;2023-04-15T07:34:15;14.90;62.90
62583;DHT22;48641;51.676;5.808;2023-04-15T07:36:41;14.90;62.80
62583;DHT22;48641;51.676;5.808;2023-04-15T07:39:06;14.90;62.70
62583;DHT22;48641;51.676;5.808;2023-04-15T07:41:32;14.90;62.70
62583;DHT22;48641;51.676;5.808;2023-04-15T07:43:58;14.90;62.70
62583;DHT22;48641;51.676;5.808;2023-04-15T07:46:23;14.90;62.70
62583;DHT22;48641;51.676;5.808;2023-04-15T07:48:51;14.90;62.70
62583;DHT22;48641;51.676;5.808;2023-04-15T07:51:17;14.90;62.80
62583;DHT22;48641;51.676;5.808;2023-04-15T07:53:43;14.90;62.80
62583;DHT22;48641;51.676;5.808;2023-04-15T07:56:09;14.90;62.70
62583;DHT22;48641;51.676;5.808;2023-04-15T07:58:35;14.90;62.70
62583;DHT22;48641;51.676;5.808;2023-04-15T08:01:03;14.90;62.70
62583;DHT22;48641;51.676;5.808;2023-04-15T08:03:28;14.90;62.70
62583;DHT22;48641;51.676;5.808;2023-04-15T08:05:54;14.90;62.60
62583;DHT22;48641;51.676;5.808;2023-04-15T08:08:19;14.90;62.60
62583;DHT22;48641;51.676;5.808;2023-04-15T08:10:45;14.90;62.60
62583;DHT22;48641;51.676;5.808;2023-04-15T08:13:11;14.90;64.40
62583;DHT22;48641;51.676;5.808;2023-04-15T08:15:37;14.90;64.30
62583;DHT22;48641;51.676;5.808;2023-04-15T08:18:03;14.90;64.10
62583;DHT22;48641;51.676;5.808;2023-04-15T08:20:28;14.90;64.00
62583;DHT22;48641;51.676;5.808;2023-04-15T08:22:54;14.90;63.80
62583;DHT22;48641;51.676;5.808;2023-04-15T08:25:20;14.90;63.70
62583;DHT22;48641;51.676;5.808;2023-04-15T08:27:46;14.90;64.10
62583;DHT22;48641;51.676;5.808;2023-04-15T08:30:12;14.90;64.00
62583;DHT22;48641;51.676;5.808;2023-04-15T08:32:38;14.90;63.90
62583;DHT22;48641;51.676;5.808;2023-04-15T08:35:04;14.90;63.70
62583;DHT22;48641;51.676;5.808;2023-04-15T08:37:30;14.90;63.70
62583;DHT22;48641;51.676;5.808;2023-04-15T08:39:55;14.90;63.60
62583;DHT22;48641;51.676;5.808;2023-04-15T08:42:47;14.90;63.50
62583;DHT22;48641;51.676;5.808;2023-04-15T08:45:11;14.90;63.50
62583;DHT22;48641;51.676;5.808;2023-04-15T08:47:37;14.90;63.60
62583;DHT22;48641;51.676;5.808;2023-04-15T08:50:04;14.90;63.60
62583;DHT22;48641;51.676;5.808;2023-04-15T08:52:32;14.90;63.50
62583;DHT22;48641;51.676;5.808;2023-04-15T08:55:01;14.90;63.50
62583;DHT22;48641;51.676;5.808;2023-04-15T08:57:28;14.90;63.40
62583;DHT22;48641;51.676;5.808;2023-04-15T08:59:57;14.90;63.40
62583;DHT22;48641;51.676;5.808;2023-04-15T09:02:23;14.90;63.30
62583;DHT22;48641;51.676;5.808;2023-04-15T09:04:50;14.90;63.30
62583;DHT22;48641;51.676;5.808;2023-04-15T09:07:15;14.80;63.50
62583;DHT22;48641;51.676;5.808;2023-04-15T09:09:41;14.80;63.50
62583;DHT22;48641;51.676;5.808;2023-04-15T09:12:08;14.90;64.50
62583;DHT22;48641;51.676;5.808;2023-04-15T09:14:33;14.90;63.50
62583;DHT22;48641;51.676;5.808;2023-04-15T09:17:01;14.80;63.40
62583;DHT22;48641;51.676;5.808;2023-04-15T09:19:27;14.90;63.50
62583;DHT22;48641;51.676;5.808;2023-04-15T09:21:54;14.80;64.10
62583;DHT22;48641;51.676;5.808;2023-04-15T09:24:22;14.90;63.40
62583;DHT22;48641;51.676;5.808;2023-04-15T09:26:51;14.80;63.30
62583;DHT22;48641;51.676;5.808;2023-04-15T09:29:18;14.90;63.30
62583;DHT22;48641;51.676;5.808;2023-04-15T09:31:44;14.90;63.30
62583;DHT22;48641;51.676;5.808;2023-04-15T09:34:09;14.90;63.20
62583;DHT22;48641;51.676;5.808;2023-04-15T09:39:16;14.90;63.40
62583;DHT22;48641;51.676;5.808;2023-04-15T09:41:42;14.90;63.40
62583;DHT22;48641;51.676;5.808;2023-04-15T09:44:24;14.90;63.30
62583;DHT22;48641;51.676;5.808;2023-04-15T09:46:50;14.90;63.30
62583;DHT22;48641;51.676;5.808;2023-04-15T09:49:16;14.90;63.40
62583;DHT22;48641;51.676;5.808;2023-04-15T09:51:42;14.90;63.50
62583;DHT22;48641;51.676;5.808;2023-04-15T09:54:08;14.90;63.50
62583;DHT22;48641;51.676;5.808;2023-04-15T09:56:38;14.90;63.40
62583;DHT22;48641;51.676;5.808;2023-04-15T09:59:09;14.90;63.40
62583;DHT22;48641;51.676;5.808;2023-04-15T10:01:35;14.90;63.40
62583;DHT22;48641;51.676;5.808;2023-04-15T10:04:03;14.90;63.40
62583;DHT22;48641;51.676;5.808;2023-04-15T10:06:29;14.90;64.70
62583;DHT22;48641;51.676;5.808;2023-04-15T10:08:58;15.00;65.30
62583;DHT22;48641;51.676;5.808;2023-04-15T10:11:25;15.00;65.10
62583;DHT22;48641;51.676;5.808;2023-04-15T10:13:52;15.10;64.80
62583;DHT22;48641;51.676;5.808;2023-04-15T10:16:19;15.10;64.60
62583;DHT22;48641;51.676;5.808;2023-04-15T10:18:55;15.00;64.30
62583;DHT22;48641;51.676;5.808;2023-04-15T10:21:21;15.10;64.40
62583;DHT22;48641;51.676;5.808;2023-04-15T10:23:48;15.10;64.20
62583;DHT22;48641;51.676;5.808;2023-04-15T10:26:15;15.10;64.60
62583;DHT22;48641;51.676;5.808;2023-04-15T10:28:42;15.10;64.50
62583;DHT22;48641;51.676;5.808;2023-04-15T10:31:08;15.10;64.30
62583;DHT22;48641;51.676;5.808;2023-04-15T10:33:36;15.10;64.20
62583;DHT22;48641;51.676;5.808;2023-04-15T10:36:03;15.10;64.10
62583;DHT22;48641;51.676;5.808;2023-04-15T10:38:35;15.10;64.00
62583;DHT22;48641;51.676;5.808;2023-04-15T10:41:18;15.10;64.00
62583;DHT22;48641;51.676;5.808;2023-04-15T10:46:33;15.10;64.00
62583;DHT22;48641;51.676;5.808;2023-04-15T10:49:25;15.10;64.00
62583;DHT22;48641;51.676;5.808;2023-04-15T10:51:52;15.10;63.80
62583;DHT22;48641;51.676;5.808;2023-04-15T10:59:29;15.10;64.00
62583;DHT22;48641;51.676;5.808;2023-04-15T11:02:02;15.10;63.90
62583;DHT22;48641;51.676;5.808;2023-04-15T11:04:57;15.10;64.00
62583;DHT22;48641;51.676;5.808;2023-04-15T11:13:01;15.10;64.00
62583;DHT22;48641;51.676;5.808;2023-04-15T11:15:37;15.10;64.00
62583;DHT22;48641;51.676;5.808;2023-04-15T11:18:26;15.10;64.00
62583;DHT22;48641;51.676;5.808;2023-04-15T11:21:04;15.10;64.40
62583;DHT22;48641;51.676;5.808;2023-04-15T11:23:43;15.10;64.00
62583;DHT22;48641;51.676;5.808;2023-04-15T11:26:11;15.20;64.00
62583;DHT22;48641;51.676;5.808;2023-04-15T11:28:39;15.10;64.00
62583;DHT22;48641;51.676;5.808;2023-04-15T11:31:11;15.20;64.10
62583;DHT22;48641;51.676;5.808;2023-04-15T11:33:45;15.20;64.00
62583;DHT22;48641;51.676;5.808;2023-04-15T11:36:11;15.10;63.90
62583;DHT22;48641;51.676;5.808;2023-04-15T11:38:37;15.10;63.90
62583;DHT22;48641;51.676;5.808;2023-04-15T11:41:06;15.20;63.90
62583;DHT22;48641;51.676;5.808;2023-04-15T11:43:32;15.20;64.30
62583;DHT22;48641;51.676;5.808;2023-04-15T11:46:29;15.20;64.10
62583;DHT22;48641;51.676;5.808;2023-04-15T11:48:55;15.20;63.90
62583;DHT22;48641;51.676;5.808;2023-04-15T11:51:21;15.20;64.10
62583;DHT22;48641;51.676;5.808;2023-04-15T11:53:48;15.20;64.00
62583;DHT22;48641;51.676;5.808;2023-04-15T11:56:22;15.20;63.90
62583;DHT22;48641;51.676;5.808;2023-04-15T11:58:51;15.20;63.90
62583;DHT22;48641;51.676;5.808;2023-04-15T12:01:17;15.20;64.40
62583;DHT22;48641;51.676;5.808;2023-04-15T12:03:45;15.20;64.20
62583;DHT22;48641;51.676;5.808;2023-04-15T12:06:15;15.20;64.40
62583;DHT22;48641;51.676;5.808;2023-04-15T12:09:03;15.20;64.30
62583;DHT22;48641;51.676;5.808;2023-04-15T12:11:40;15.30;64.30
62583;DHT22;48641;51.676;5.808;2023-04-15T12:16:39;15.30;64.20
62583;DHT22;48641;51.676;5.808;2023-04-15T12:19:38;15.30;64.10
62583;DHT22;48641;51.676;5.808;2023-04-15T12:22:03;15.30;65.70
62583;DHT22;48641;51.676;5.808;2023-04-15T12:24:33;15.40;65.10
62583;DHT22;48641;51.676;5.808;2023-04-15T12:27:10;15.40;64.70
62583;DHT22;48641;51.676;5.808;2023-04-15T12:29:38;15.40;64.40
62583;DHT22;48641;51.676;5.808;2023-04-15T12:32:13;15.40;64.40
62583;DHT22;48641;51.676;5.808;2023-04-15T12:34:41;15.40;64.30
62583;DHT22;48641;51.676;5.808;2023-04-15T12:37:09;15.40;64.20
62583;DHT22;48641;51.676;5.808;2023-04-15T12:39:37;15.40;64.20
62583;DHT22;48641;51.676;5.808;2023-04-15T12:42:03;15.40;64.20
62583;DHT22;48641;51.676;5.808;2023-04-15T12:44:29;15.40;64.10
62583;DHT22;48641;51.676;5.808;2023-04-15T12:46:55;15.40;64.00
62583;DHT22;48641;51.676;5.808;2023-04-15T12:49:21;15.50;64.10
62583;DHT22;48641;51.676;5.808;2023-04-15T12:51:52;15.40;64.00
62583;DHT22;48641;51.676;5.808;2023-04-15T12:54:18;15.50;64.00
62583;DHT22;48641;51.676;5.808;2023-04-15T12:56:48;15.50;64.00
62583;DHT22;48641;51.676;5.808;2023-04-15T12:59:14;15.50;64.00
62583;DHT22;48641;51.676;5.808;2023-04-15T13:01:41;15.50;64.00
62583;DHT22;48641;51.676;5.808;2023-04-15T13:04:06;15.50;64.00
62583;DHT22;48641;51.676;5.808;2023-04-15T13:06:32;15.50;64.00
62583;DHT22;48641;51.676;5.808;2023-04-15T13:08:58;15.50;64.00
62583;DHT22;48641;51.676;5.808;2023-04-15T13:11:26;15.50;64.00
62583;DHT22;48641;51.676;5.808;2023-04-15T13:13:51;15.60;64.00
62583;DHT22;48641;51.676;5.808;2023-04-15T13:16:17;15.50;63.90
62583;DHT22;48641;51.676;5.808;2023-04-15T13:18:43;15.60;63.90
62583;DHT22;48641;51.676;5.808;2023-04-15T13:21:11;15.60;63.90
62583;DHT22;48641;51.676;5.808;2023-04-15T13:23:37;15.60;63.90
62583;DHT22;48641;51.676;5.808;2023-04-15T13:26:03;15.60;63.90
62583;DHT22;48641;51.676;5.808;2023-04-15T13:28:28;15.60;64.00
62583;DHT22;48641;51.676;5.808;2023-04-15T13:30:54;15.60;64.00
62583;DHT22;48641;51.676;5.808;2023-04-15T13:33:20;15.60;63.90
62583;DHT22;48641;51.676;5.808;2023-04-15T13:35:45;15.60;63.90
62583;DHT22;48641;51.676;5.808;2023-04-15T13:38:11;15.60;64.50
62583;DHT22;48641;51.676;5.808;2023-04-15T13:40:37;15.60;64.40
62583;DHT22;48641;51.676;5.808;2023-04-15T13:43:02;15.60;64.20
62583;DHT22;48641;51.676;5.808;2023-04-15T13:45:29;15.60;64.10
62583;DHT22;48641;51.676;5.808;2023-04-15T13:47:55;15.60;64.10
62583;DHT22;48641;51.676;5.808;2023-04-15T13:50:21;15.60;64.00
62583;DHT22;48641;51.676;5.808;2023-04-15T13:52:47;15.70;64.00
62583;DHT22;48641;51.676;5.808;2023-04-15T13:55:12;15.70;64.00
62583;DHT22;48641;51.676;5.808;2023-04-15T13:57:38;15.60;63.90
62583;DHT22;48641;51.676;5.808;2023-04-15T14:00:04;15.70;64.00
62583;DHT22;48641;51.676;5.808;2023-04-15T14:02:30;15.70;64.00
62583;DHT22;48641;51.676;5.808;2023-04-15T14:04:56;15.70;64.10
62583;DHT22;48641;51.676;5.808;2023-04-15T14:07:22;15.70;64.10
62583;DHT22;48641;51.676;5.808;2023-04-15T14:09:47;15.70;64.00
62583;DHT22;48641;51.676;5.808;2023-04-15T14:12:13;15.70;64.00
62583;DHT22;48641;51.676;5.808;2023-04-15T14:14:39;15.70;64.00
62583;DHT22;48641;51.676;5.808;2023-04-15T14:17:05;15.70;64.00
62583;DHT22;48641;51.676;5.808;2023-04-15T14:19:31;15.70;64.00
62583;DHT22;48641;51.676;5.808;2023-04-15T14:21:57;15.70;64.00
62583;DHT22;48641;51.676;5.808;2023-04-15T14:24:23;15.70;64.00
62583;DHT22;48641;51.676;5.808;2023-04-15T14:26:49;15.70;64.00
62583;DHT22;48641;51.676;5.808;2023-04-15T14:29:15;15.70;64.10
62583;DHT22;48641;51.676;5.808;2023-04-15T14:31:41;15.70;64.00
62583;DHT22;48641;51.676;5.808;2023-04-15T14:34:06;15.70;64.00
62583;DHT22;48641;51.676;5.808;2023-04-15T14:36:32;15.70;65.00
62583;DHT22;48641;51.676;5.808;2023-04-15T14:38:58;15.70;64.10
62583;DHT22;48641;51.676;5.808;2023-04-15T14:41:24;15.70;64.10
62583;DHT22;48641;51.676;5.808;2023-04-15T14:43:50;15.70;64.00
62583;DHT22;48641;51.676;5.808;2023-04-15T14:46:16;15.70;64.10
62583;DHT22;48641;51.676;5.808;2023-04-15T14:48:41;15.70;64.10
62583;DHT22;48641;51.676;5.808;2023-04-15T14:51:07;15.70;64.10
62583;DHT22;48641;51.676;5.808;2023-04-15T14:53:33;15.70;64.10
62583;DHT22;48641;51.676;5.808;2023-04-15T14:55:58;15.70;64.10
62583;DHT22;48641;51.676;5.808;2023-04-15T14:58:24;15.70;64.20
62583;DHT22;48641;51.676;5.808;2023-04-15T15:00:50;15.70;64.10
62583;DHT22;48641;51.676;5.808;2023-04-15T15:03:15;15.70;64.20
62583;DHT22;48641;51.676;5.808;2023-04-15T15:05:42;15.70;64.20
62583;DHT22;48641;51.676;5.808;2023-04-15T15:08:09;15.70;64.20
62583;DHT22;48641;51.676;5.808;2023-04-15T15:10:35;15.70;64.20
62583;DHT22;48641;51.676;5.808;2023-04-15T15:13:05;15.70;64.20
62583;DHT22;48641;51.676;5.808;2023-04-15T15:15:32;15.70;64.20
62583;DHT22;48641;51.676;5.808;2023-04-15T15:17:58;15.70;64.10
62583;DHT22;48641;51.676;5.808;2023-04-15T15:20:24;15.70;64.10
62583;DHT22;48641;51.676;5.808;2023-04-15T15:22:50;15.70;64.20
62583;DHT22;48641;51.676;5.808;2023-04-15T15:25:16;15.70;64.10
62583;DHT22;48641;51.676;5.808;2023-04-15T15:27:41;15.70;64.10
62583;DHT22;48641;51.676;5.808;2023-04-15T15:30:07;15.70;64.20
62583;DHT22;48641;51.676;5.808;2023-04-15T15:32:33;15.70;64.10
62583;DHT22;48641;51.676;5.808;2023-04-15T15:34:59;15.80;64.50
62583;DHT22;48641;51.676;5.808;2023-04-15T15:37:24;15.70;64.40
62583;DHT22;48641;51.676;5.808;2023-04-15T15:39:51;15.70;64.30
62583;DHT22;48641;51.676;5.808;2023-04-15T15:42:21;15.70;64.40
62583;DHT22;48641;51.676;5.808;2023-04-15T15:44:47;15.70;64.30
62583;DHT22;48641;51.676;5.808;2023-04-15T15:47:17;15.70;64.60